createdAt,value
2023-02-28T00:01:31.828Z,33.60
2023-02-28T00:04:00.476Z,25.95
2023-02-28T00:06:36.433Z,28.25
2023-02-28T00:09:04.620Z,26.05
2023-02-28T00:11:32.733Z,26.20
2023-02-28T00:14:01.043Z,32.03
2023-02-28T00:16:29.040Z,29.33
2023-02-28T00:18:57.290Z,27.08
2023-02-28T00:21:25.246Z,25.17
2023-02-28T00:23:53.721Z,30.45
2023-02-28T00:26:22.069Z,28.02
2023-02-28T00:28:52.294Z,26.98
2023-02-28T00:31:20.291Z,26.05
2023-02-28T00:33:48.565Z,27.38
2023-02-28T00:36:16.467Z,25.00
2023-02-28T00:38:44.741Z,26.35
2023-02-28T00:41:12.719Z,24.10
2023-02-28T00:43:41.054Z,20.67
2023-02-28T00:46:09.576Z,23.25
2023-02-28T00:48:37.828Z,22.88
2023-02-28T00:51:06.004Z,24.35
2023-02-28T00:53:34.424Z,24.05
2023-02-28T00:56:03.627Z,25.38
2023-02-28T00:58:31.857Z,28.15
2023-02-28T01:00:59.973Z,22.35
2023-02-28T01:03:28.342Z,22.02
2023-02-28T01:05:56.280Z,29.33
2023-02-28T01:08:24.984Z,30.83
2023-02-28T01:10:59.050Z,25.15
2023-02-28T01:13:27.326Z,29.73
2023-02-28T01:15:57.074Z,22.60
2023-02-28T01:18:25.952Z,32.83
2023-02-28T01:20:54.137Z,29.17
2023-02-28T01:23:23.400Z,23.50
2023-02-28T01:29:32.684Z,27.08
2023-02-28T01:32:00.991Z,22.75
2023-02-28T01:34:29.019Z,23.20
2023-02-28T01:37:15.544Z,24.48
2023-02-28T01:39:43.456Z,24.35
2023-02-28T01:42:11.737Z,23.88
2023-02-28T01:45:15.023Z,30.58
2023-02-28T01:47:44.448Z,32.40
2023-02-28T01:50:18.846Z,29.25
2023-02-28T01:52:49.296Z,30.98
2023-02-28T01:55:23.121Z,29.30
2023-02-28T01:57:56.006Z,30.35
2023-02-28T02:00:27.009Z,25.90
2023-02-28T02:02:58.848Z,24.05
2023-02-28T02:05:30.414Z,27.52
2023-02-28T02:08:04.242Z,27.05
2023-02-28T02:11:07.916Z,25.85
2023-02-28T02:14:00.668Z,24.27
2023-02-28T02:16:38.479Z,26.45
2023-02-28T02:19:25.034Z,26.23
2023-02-28T02:22:29.969Z,23.65
2023-02-28T02:25:19.654Z,25.55
2023-02-28T02:28:06.043Z,27.33
2023-02-28T02:30:49.321Z,26.90
2023-02-28T02:33:29.894Z,37.55
2023-02-28T02:36:19.109Z,31.13
2023-02-28T02:39:34.074Z,22.27
2023-02-28T02:42:09.768Z,27.25
2023-02-28T02:44:44.986Z,25.65
2023-02-28T02:47:18.412Z,24.10
2023-02-28T02:49:58.806Z,22.73
2023-02-28T02:52:35.689Z,24.63
2023-02-28T02:55:06.768Z,22.73
2023-02-28T02:57:41.393Z,23.77
2023-02-28T03:00:10.719Z,23.60
2023-02-28T03:02:41.425Z,26.30
2023-02-28T03:05:34.687Z,29.55
2023-02-28T03:08:06.032Z,31.73
2023-02-28T03:10:40.589Z,27.08
2023-02-28T03:13:46.312Z,26.60
2023-02-28T03:16:20.184Z,28.45
2023-02-28T03:19:39.449Z,26.83
2023-02-28T03:22:25.420Z,28.15
2023-02-28T03:25:09.891Z,31.48
2023-02-28T03:27:50.611Z,35.58
2023-02-28T03:30:55.202Z,29.20
2023-02-28T03:33:33.705Z,29.35
2023-02-28T03:36:31.045Z,28.10
2023-02-28T03:39:06.602Z,28.92
2023-02-28T03:41:46.773Z,28.48
2023-02-28T03:44:22.494Z,26.42
2023-02-28T03:47:01.425Z,29.98
2023-02-28T03:49:38.309Z,26.60
2023-02-28T03:52:08.316Z,25.08
2023-02-28T03:54:43.562Z,27.77
2023-02-28T03:57:23.169Z,32.53
2023-02-28T03:59:58.319Z,28.50
2023-02-28T04:02:26.717Z,28.85
2023-02-28T04:04:54.968Z,28.20
2023-02-28T04:07:23.334Z,32.30
2023-02-28T04:09:51.389Z,27.83
2023-02-28T04:12:19.577Z,25.83
2023-02-28T04:14:47.596Z,27.23
2023-02-28T04:17:17.166Z,31.35
2023-02-28T04:19:45.682Z,39.20
2023-02-28T04:22:14.386Z,32.80
2023-02-28T04:24:42.648Z,29.17
2023-02-28T04:27:10.998Z,29.63
2023-02-28T04:29:39.369Z,39.35
2023-02-28T04:32:07.822Z,36.60
2023-02-28T04:34:36.140Z,33.63
2023-02-28T04:37:13.982Z,28.30
2023-02-28T04:39:42.486Z,30.90
2023-02-28T04:42:12.078Z,25.98
2023-02-28T04:44:40.177Z,27.50
2023-02-28T04:47:08.483Z,25.50
2023-02-28T04:49:36.563Z,25.48
2023-02-28T04:52:05.358Z,26.98
2023-02-28T04:54:33.463Z,31.48
2023-02-28T04:57:01.867Z,25.83
2023-02-28T04:59:29.769Z,27.85
2023-02-28T05:01:58.010Z,26.70
2023-02-28T05:04:41.047Z,26.38
2023-02-28T05:07:09.388Z,24.15
2023-02-28T05:09:37.387Z,25.73
2023-02-28T05:12:05.724Z,28.85
2023-02-28T05:14:33.617Z,28.48
2023-02-28T05:17:02.013Z,28.08
2023-02-28T05:19:29.983Z,25.58
2023-02-28T05:21:58.452Z,24.67
2023-02-28T05:24:26.328Z,25.48
2023-02-28T05:26:55.646Z,25.10
2023-02-28T05:29:23.914Z,23.20
2023-02-28T05:31:52.344Z,24.00
2023-02-28T05:34:27.560Z,24.05
2023-02-28T05:36:56.001Z,22.23
2023-02-28T05:39:24.159Z,29.75
2023-02-28T05:41:52.311Z,32.33
2023-02-28T05:44:20.438Z,34.42
2023-02-28T05:46:48.842Z,31.05
2023-02-28T05:49:16.759Z,25.50
2023-02-28T05:51:45.090Z,27.70
2023-02-28T05:54:13.998Z,32.33
2023-02-28T05:56:42.431Z,27.90
2023-02-28T05:59:11.085Z,22.10
2023-02-28T06:05:19.059Z,30.15
2023-02-28T06:07:47.345Z,29.90
2023-02-28T06:10:15.475Z,22.73
2023-02-28T06:12:46.213Z,28.55
2023-02-28T06:15:15.511Z,25.40
2023-02-28T06:17:45.043Z,22.77
2023-02-28T06:20:39.513Z,26.20
2023-02-28T06:23:07.804Z,26.52
2023-02-28T06:25:35.906Z,37.25
2023-02-28T06:28:04.209Z,33.55
2023-02-28T06:30:32.211Z,33.10
2023-02-28T06:33:00.378Z,27.90
2023-02-28T06:35:36.948Z,34.25
2023-02-28T06:38:04.850Z,29.90
2023-02-28T06:40:32.298Z,18.98
2023-02-28T06:43:00.058Z,21.35
2023-02-28T06:45:27.607Z,20.83
2023-02-28T06:47:55.431Z,12.80
2023-02-28T06:50:23.059Z,14.95
2023-02-28T06:52:50.698Z,14.98
2023-02-28T06:55:18.324Z,17.15
2023-02-28T06:57:46.236Z,19.10
2023-02-28T07:00:13.990Z,14.70
2023-02-28T07:02:46.114Z,14.02
2023-02-28T07:05:13.824Z,14.73
2023-02-28T07:07:41.539Z,14.25
2023-02-28T07:10:09.358Z,17.38
2023-02-28T07:12:37.260Z,14.75
2023-02-28T07:15:05.600Z,13.95
2023-02-28T07:17:33.388Z,20.13
2023-02-28T07:20:00.791Z,17.05
2023-02-28T07:22:28.646Z,20.05
2023-02-28T07:24:56.278Z,14.07
2023-02-28T07:27:24.007Z,20.70
2023-02-28T07:29:51.388Z,16.90
2023-02-28T07:32:19.446Z,25.02
2023-02-28T07:34:47.126Z,18.35
2023-02-28T07:37:15.071Z,17.58
2023-02-28T07:39:42.512Z,14.73
2023-02-28T07:42:10.179Z,14.80
2023-02-28T07:44:37.574Z,14.18
2023-02-28T07:47:05.243Z,20.38
2023-02-28T07:49:32.653Z,16.63
2023-02-28T07:52:00.305Z,14.93
2023-02-28T07:54:27.615Z,17.85
2023-02-28T07:56:55.280Z,13.90
2023-02-28T07:59:22.629Z,16.08
2023-02-28T08:01:50.326Z,15.57
2023-02-28T08:04:18.350Z,7.32
2023-02-28T08:06:46.016Z,13.50
2023-02-28T08:09:13.360Z,13.65
2023-02-28T08:11:41.015Z,8.57
2023-02-28T08:14:08.487Z,9.68
2023-02-28T08:16:36.722Z,13.65
2023-02-28T08:19:04.158Z,12.30
2023-02-28T08:21:31.994Z,10.88
2023-02-28T08:24:00.455Z,12.75
2023-02-28T08:26:28.134Z,10.00
2023-02-28T08:28:57.294Z,9.73
2023-02-28T08:31:25.419Z,10.77
2023-02-28T08:33:52.904Z,8.13
2023-02-28T08:36:20.731Z,9.65
2023-02-28T08:38:48.206Z,12.02
2023-02-28T08:41:15.971Z,8.68
2023-02-28T08:43:43.443Z,10.52
2023-02-28T08:46:14.197Z,8.68
2023-02-28T08:48:41.827Z,7.72
2023-02-28T08:51:11.202Z,8.95
2023-02-28T08:53:39.164Z,8.02
2023-02-28T08:56:08.271Z,8.70
2023-02-28T08:58:36.348Z,8.48
2023-02-28T09:03:52.527Z,7.53
2023-02-28T09:06:21.072Z,7.93
2023-02-28T09:08:48.499Z,8.93
2023-02-28T09:11:16.677Z,7.43
2023-02-28T09:13:44.064Z,11.48
2023-02-28T09:16:12.949Z,6.57
2023-02-28T09:18:41.162Z,8.50
2023-02-28T09:21:10.005Z,6.60
2023-02-28T09:23:37.934Z,8.15
2023-02-28T09:26:05.942Z,9.30
2023-02-28T09:28:33.461Z,7.13
2023-02-28T09:34:10.071Z,11.75
2023-02-28T09:36:44.681Z,11.75
2023-02-28T09:39:13.496Z,6.25
2023-02-28T09:41:42.981Z,6.50
2023-02-28T09:44:13.654Z,6.78
2023-02-28T09:46:43.890Z,6.28
2023-02-28T09:49:20.708Z,8.88
2023-02-28T09:51:51.115Z,6.97
2023-02-28T09:54:29.552Z,8.82
2023-02-28T09:57:00.139Z,7.05
2023-02-28T09:59:33.300Z,7.35
2023-02-28T10:02:03.817Z,8.75
2023-02-28T10:04:49.446Z,7.63
2023-02-28T10:07:34.555Z,7.82
2023-02-28T10:10:04.706Z,6.55
2023-02-28T10:12:33.265Z,6.40
2023-02-28T10:15:00.838Z,6.78
2023-02-28T10:17:33.425Z,7.18
2023-02-28T10:20:13.801Z,6.65
2023-02-28T10:22:44.385Z,7.13
2023-02-28T10:25:25.818Z,6.68
2023-02-28T10:28:02.754Z,7.30
2023-02-28T10:30:30.152Z,7.50
2023-02-28T10:32:57.878Z,7.25
2023-02-28T10:35:26.385Z,8.93
2023-02-28T10:37:55.497Z,7.25
2023-02-28T10:40:22.957Z,7.50
2023-02-28T10:42:57.976Z,6.95
2023-02-28T10:45:25.808Z,9.32
2023-02-28T10:47:54.746Z,8.90
2023-02-28T10:50:38.036Z,8.10
2023-02-28T10:53:08.686Z,11.07
2023-02-28T10:55:36.269Z,9.27
2023-02-28T10:58:03.988Z,12.70
2023-02-28T11:00:36.081Z,9.32
2023-02-28T11:03:23.306Z,9.25
2023-02-28T11:05:50.777Z,8.57
2023-02-28T11:08:19.619Z,9.50
2023-02-28T11:10:48.525Z,8.07
2023-02-28T11:13:20.485Z,9.27
2023-02-28T11:15:58.283Z,8.68
2023-02-28T11:18:30.783Z,10.85
2023-02-28T11:21:00.455Z,12.05
2023-02-28T11:23:28.929Z,11.20
2023-02-28T11:25:59.215Z,12.00
2023-02-28T11:28:27.211Z,7.75
2023-02-28T11:31:02.602Z,9.40
2023-02-28T11:33:31.540Z,7.32
2023-02-28T11:36:04.712Z,10.30
2023-02-28T11:38:35.187Z,8.82
2023-02-28T11:41:17.841Z,11.15
2023-02-28T11:43:48.395Z,12.98
2023-02-28T11:46:21.828Z,8.95
2023-02-28T11:48:54.915Z,9.15
2023-02-28T11:51:29.575Z,9.52
2023-02-28T11:53:57.349Z,9.65
2023-02-28T11:56:29.221Z,9.82
2023-02-28T12:01:30.445Z,8.52
2023-02-28T12:04:13.676Z,9.45
2023-02-28T12:06:43.972Z,8.93
2023-02-28T12:09:17.740Z,7.95
2023-02-28T12:12:00.410Z,7.50
2023-02-28T12:14:40.071Z,9.38
2023-02-28T12:17:26.172Z,12.15
2023-02-28T12:20:18.569Z,8.45
2023-02-28T12:22:48.965Z,10.07
2023-02-28T12:25:19.457Z,15.30
2023-02-28T12:27:47.990Z,11.95
2023-02-28T12:30:19.610Z,13.00
2023-02-28T12:32:50.065Z,13.02
2023-02-28T12:35:25.999Z,13.02
2023-02-28T12:37:53.348Z,13.40
2023-02-28T12:40:23.060Z,10.60
2023-02-28T12:42:55.266Z,15.32
2023-02-28T12:45:32.583Z,12.80
2023-02-28T12:48:05.142Z,13.57
2023-02-28T12:50:33.523Z,11.50
2023-02-28T12:53:00.875Z,15.88
2023-02-28T12:55:37.596Z,11.10
2023-02-28T12:58:17.123Z,12.88
2023-02-28T13:01:03.420Z,10.85
2023-02-28T13:03:45.834Z,13.75
2023-02-28T13:06:21.412Z,14.57
2023-02-28T13:09:03.067Z,11.55
2023-02-28T13:11:40.256Z,11.95
2023-02-28T13:14:19.384Z,14.25
2023-02-28T13:17:01.130Z,10.77
2023-02-28T13:19:30.620Z,11.40
2023-02-28T13:21:58.992Z,12.90
2023-02-28T13:24:46.717Z,11.30
2023-02-28T13:27:17.438Z,13.15
2023-02-28T13:29:45.494Z,15.15
2023-02-28T13:32:13.621Z,12.73
2023-02-28T13:34:42.950Z,14.68
2023-02-28T13:37:23.177Z,14.40
2023-02-28T13:39:51.037Z,16.45
2023-02-28T13:42:24.618Z,15.38
2023-02-28T13:44:57.905Z,12.70
2023-02-28T13:47:29.150Z,14.65
2023-02-28T13:50:16.837Z,12.30
2023-02-28T13:53:05.748Z,14.27
2023-02-28T13:55:39.156Z,16.50
2023-02-28T14:01:39.139Z,17.45
2023-02-28T14:04:26.921Z,18.10
2023-02-28T14:06:55.468Z,15.27
2023-02-28T14:09:28.497Z,19.38
2023-02-28T14:11:56.192Z,17.50
2023-02-28T14:14:36.545Z,16.33
2023-02-28T14:17:05.158Z,22.02
2023-02-28T14:19:34.192Z,16.10
2023-02-28T14:22:04.648Z,18.40
2023-02-28T14:24:50.984Z,18.88
2023-02-28T14:27:25.981Z,18.33
2023-02-28T14:33:36.032Z,17.60
2023-02-28T14:36:16.105Z,23.17
2023-02-28T14:38:48.120Z,20.67
2023-02-28T14:43:58.598Z,16.98
2023-02-28T14:46:46.633Z,13.93
2023-02-28T14:49:17.908Z,15.80
2023-02-28T14:51:45.879Z,17.27
2023-02-28T14:54:15.535Z,13.88
2023-02-28T14:56:43.664Z,20.45
2023-02-28T14:59:44.298Z,15.27
2023-02-28T15:02:20.343Z,16.38
2023-02-28T15:04:55.440Z,15.40
2023-02-28T15:07:23.360Z,16.52
2023-02-28T15:10:07.076Z,14.55
2023-02-28T15:12:35.528Z,20.52
2023-02-28T15:15:03.270Z,19.73
2023-02-28T15:17:33.662Z,10.88
2023-02-28T15:20:01.426Z,16.00
2023-02-28T15:22:37.032Z,13.30
2023-02-28T15:25:05.794Z,14.27
2023-02-28T15:27:34.114Z,15.45
2023-02-28T15:30:06.072Z,13.07
2023-02-28T15:35:37.382Z,16.15
2023-02-28T15:38:23.505Z,11.88
2023-02-28T15:40:53.330Z,13.60
2023-02-28T15:43:31.299Z,13.43
2023-02-28T15:46:00.913Z,25.98
2023-02-28T15:48:30.645Z,12.55
2023-02-28T15:51:02.295Z,11.60
2023-02-28T15:53:32.721Z,13.40
2023-02-28T15:56:04.900Z,11.57
2023-02-28T15:58:33.794Z,12.90
2023-02-28T16:01:07.282Z,13.25
2023-02-28T16:03:44.161Z,12.90
2023-02-28T16:06:17.550Z,15.70
2023-02-28T16:08:45.637Z,14.40
2023-02-28T16:11:13.058Z,13.23
2023-02-28T16:13:40.851Z,13.95
2023-02-28T16:16:08.414Z,11.70
2023-02-28T16:18:36.201Z,12.13
2023-02-28T16:21:03.618Z,11.18
2023-02-28T16:23:31.425Z,14.02
2023-02-28T16:25:59.180Z,11.93
2023-02-28T16:28:33.496Z,13.43
2023-02-28T16:31:01.808Z,11.23
2023-02-28T16:33:30.419Z,17.27
2023-02-28T16:36:00.510Z,15.82
2023-02-28T16:38:28.634Z,17.20
2023-02-28T16:40:56.980Z,12.63
2023-02-28T16:43:25.684Z,14.18
2023-02-28T16:45:56.994Z,17.75
2023-02-28T16:48:25.237Z,14.30
2023-02-28T16:50:52.658Z,16.58
2023-02-28T16:53:20.352Z,15.40
2023-02-28T16:55:47.921Z,13.77
2023-02-28T16:58:16.894Z,19.48
2023-02-28T17:00:44.524Z,16.13
2023-02-28T17:03:32.023Z,17.13
2023-02-28T17:06:00.503Z,18.17
2023-02-28T17:08:28.244Z,19.70
2023-02-28T17:10:55.779Z,19.20
2023-02-28T17:13:23.543Z,23.40
2023-02-28T17:15:51.361Z,20.40
2023-02-28T17:18:20.485Z,19.73
2023-02-28T17:24:16.477Z,17.02
2023-02-28T17:26:46.801Z,19.52
2023-02-28T17:29:18.659Z,24.00
2023-02-28T17:31:46.494Z,33.15
2023-02-28T17:34:13.971Z,30.45
2023-02-28T17:36:41.893Z,22.42
2023-02-28T17:39:10.153Z,26.67
2023-02-28T17:41:37.802Z,22.55
2023-02-28T17:44:05.605Z,24.63
2023-02-28T17:46:33.774Z,28.58
2023-02-28T17:49:02.508Z,23.05
2023-02-28T17:51:30.575Z,24.80
2023-02-28T17:53:57.975Z,27.80
2023-02-28T17:56:26.986Z,24.40
2023-02-28T17:58:55.188Z,22.05
2023-02-28T18:01:23.389Z,23.90
2023-02-28T18:03:51.024Z,27.45
2023-02-28T18:06:26.608Z,45.10
2023-02-28T18:08:54.066Z,35.38
2023-02-28T18:11:22.516Z,24.80
2023-02-28T18:13:53.871Z,31.88
2023-02-28T18:16:22.246Z,34.50
2023-02-28T18:18:58.630Z,41.80
2023-02-28T18:21:26.330Z,27.85
2023-02-28T18:23:53.769Z,30.65
2023-02-28T18:26:25.546Z,32.90
2023-02-28T18:28:53.388Z,34.90
2023-02-28T18:31:21.497Z,34.70
2023-02-28T18:33:49.846Z,34.20
2023-02-28T18:36:17.993Z,33.72
2023-02-28T18:38:45.542Z,43.15
2023-02-28T18:41:13.281Z,33.45
2023-02-28T18:43:40.841Z,37.75
2023-02-28T18:46:10.193Z,35.20
2023-02-28T18:48:37.612Z,32.28
2023-02-28T18:51:08.158Z,32.28
2023-02-28T18:53:36.254Z,35.28
2023-02-28T18:56:04.842Z,38.10
2023-02-28T18:58:32.706Z,34.35
2023-02-28T19:01:01.553Z,33.13
2023-02-28T19:03:28.939Z,31.55
2023-02-28T19:05:57.084Z,30.30
2023-02-28T19:11:47.437Z,34.93
2023-02-28T19:17:20.752Z,30.02
2023-02-28T19:19:48.594Z,38.03
2023-02-28T19:22:16.246Z,41.63
2023-02-28T19:24:44.755Z,34.72
2023-02-28T19:27:12.489Z,34.88
2023-02-28T19:29:40.187Z,33.85
2023-02-28T19:32:08.054Z,39.05
2023-02-28T19:34:36.044Z,36.22
2023-02-28T19:37:03.565Z,39.25
2023-02-28T19:39:31.725Z,32.17
2023-02-28T19:41:59.211Z,37.22
2023-02-28T19:44:27.090Z,35.08
2023-02-28T19:46:54.861Z,33.78
2023-02-28T19:49:23.484Z,34.60
2023-02-28T19:51:51.577Z,39.08
2023-02-28T19:54:19.561Z,30.63
2023-02-28T19:56:46.996Z,31.02
2023-02-28T19:59:21.803Z,34.35
2023-02-28T20:01:58.814Z,37.97
2023-02-28T20:04:27.201Z,40.38
2023-02-28T20:06:54.857Z,37.20
2023-02-28T20:09:22.666Z,34.25
2023-02-28T20:11:50.256Z,73.35
2023-02-28T20:14:19.902Z,40.22
2023-02-28T20:16:47.424Z,41.83
2023-02-28T20:19:15.369Z,33.22
2023-02-28T20:21:49.798Z,181.93
2023-02-28T20:24:17.562Z,56.15
2023-02-28T20:26:45.117Z,40.33
2023-02-28T20:29:12.738Z,34.55
2023-02-28T20:31:40.132Z,39.85
2023-02-28T20:34:08.610Z,35.58
2023-02-28T20:36:35.988Z,31.75
2023-02-28T20:39:04.096Z,38.42
2023-02-28T20:41:31.478Z,34.65
2023-02-28T20:43:59.542Z,40.35
2023-02-28T20:46:27.178Z,42.88
2023-02-28T20:48:55.200Z,40.60
2023-02-28T20:51:23.311Z,41.40
2023-02-28T20:53:51.004Z,40.22
2023-02-28T20:56:19.734Z,37.83
2023-02-28T20:58:48.320Z,37.08
2023-02-28T21:01:20.088Z,39.35
2023-02-28T21:03:49.090Z,32.63
2023-02-28T21:06:17.430Z,37.00
2023-02-28T21:08:45.630Z,37.55
2023-02-28T21:11:39.138Z,36.00
2023-02-28T21:14:08.195Z,34.55
2023-02-28T21:16:37.806Z,36.58
2023-02-28T21:19:06.190Z,37.35
2023-02-28T21:21:37.988Z,47.42
2023-02-28T21:24:06.213Z,31.70
2023-02-28T21:26:33.857Z,40.78
2023-02-28T21:29:02.439Z,41.58
2023-02-28T21:31:30.794Z,39.47
2023-02-28T21:33:59.176Z,41.22
2023-02-28T21:36:27.553Z,43.50
2023-02-28T21:38:56.836Z,49.67
2023-02-28T21:41:24.601Z,39.80
2023-02-28T21:43:52.569Z,42.33
2023-02-28T21:46:24.706Z,45.97
2023-02-28T21:48:52.766Z,49.88
2023-02-28T21:51:21.616Z,42.47
2023-02-28T21:53:49.897Z,39.17
2023-02-28T21:56:17.271Z,39.50
2023-02-28T21:58:45.251Z,49.08
2023-02-28T22:01:14.286Z,42.42
2023-02-28T22:07:14.075Z,41.58
2023-02-28T22:09:41.816Z,51.20
2023-02-28T22:12:09.267Z,52.13
2023-02-28T22:14:38.453Z,44.90
2023-02-28T22:17:06.153Z,38.40
2023-02-28T22:19:33.878Z,49.28
2023-02-28T22:22:01.442Z,40.53
2023-02-28T22:24:29.105Z,47.78
2023-02-28T22:26:56.547Z,46.40
2023-02-28T22:29:24.338Z,53.60
2023-02-28T22:31:51.876Z,51.63
2023-02-28T22:34:19.852Z,43.90
2023-02-28T22:36:47.268Z,52.80
2023-02-28T22:39:14.978Z,40.85
2023-02-28T22:41:42.430Z,54.50
2023-02-28T22:44:10.411Z,50.22
2023-02-28T22:46:37.891Z,46.05
2023-02-28T22:49:05.618Z,44.13
2023-02-28T22:51:33.388Z,48.58
2023-02-28T22:54:01.184Z,42.50
2023-02-28T22:56:29.941Z,42.50
2023-02-28T22:58:58.723Z,42.88
2023-02-28T23:01:27.906Z,50.17
2023-02-28T23:03:55.655Z,44.72
2023-02-28T23:06:30.958Z,37.35
2023-02-28T23:09:01.251Z,47.83
2023-02-28T23:11:30.161Z,48.90
2023-02-28T23:13:58.391Z,41.72
2023-02-28T23:16:32.244Z,49.72
2023-02-28T23:19:01.327Z,48.80
2023-02-28T23:21:29.341Z,44.63
2023-02-28T23:23:57.150Z,50.20
2023-02-28T23:26:24.571Z,53.20
2023-02-28T23:28:52.304Z,44.20
2023-02-28T23:31:20.196Z,53.72
2023-02-28T23:33:47.825Z,44.53
2023-02-28T23:36:15.875Z,53.92
2023-02-28T23:38:47.140Z,46.45
2023-02-28T23:41:14.890Z,52.33
2023-02-28T23:43:42.798Z,53.63
2023-02-28T23:46:10.888Z,54.10
2023-02-28T23:48:39.069Z,48.03
2023-02-28T23:51:08.011Z,75.35
2023-02-28T23:53:36.470Z,48.22
2023-02-28T23:56:04.342Z,56.13
2023-02-28T23:58:32.576Z,43.25
